sensor_id;sensor_type;location;lat;lon;timestamp;temperature;humidity
3312;DHT22;1668;49.648;8.570;2023-09-30T00:01:09;17.70;40.70
3312;DHT22;1668;49.648;8.570;2023-09-30T00:03:36;17.70;99.90
3312;DHT22;1668;49.648;8.570;2023-09-30T00:06:03;17.70;99.90
3312;DHT22;1668;49.648;8.570;2023-09-30T00:08:30;17.70;99.90
3312;DHT22;1668;49.648;8.570;2023-09-30T00:10:57;17.70;82.10
3312;DHT22;1668;49.648;8.570;2023-09-30T00:13:26;17.70;99.90
3312;DHT22;1668;49.648;8.570;2023-09-30T00:15:54;17.70;99.90
3312;DHT22;1668;49.648;8.570;2023-09-30T00:18:20;17.70;1.00
3312;DHT22;1668;49.648;8.570;2023-09-30T00:20:47;17.70;1.00
3312;DHT22;1668;49.648;8.570;2023-09-30T00:23:14;17.60;1.00
3312;DHT22;1668;49.648;8.570;2023-09-30T00:25:41;17.60;1.00
3312;DHT22;1668;49.648;8.570;2023-09-30T00:28:08;17.60;1.00
3312;DHT22;1668;49.648;8.570;2023-09-30T00:30:36;17.60;1.00
3312;DHT22;1668;49.648;8.570;2023-09-30T00:33:04;17.60;99.90
3312;DHT22;1668;49.648;8.570;2023-09-30T00:35:32;17.50;99.90
3312;DHT22;1668;49.648;8.570;2023-09-30T00:37:59;17.50;97.30
3312;DHT22;1668;49.648;8.570;2023-09-30T00:40:25;17.50;81.10
3312;DHT22;1668;49.648;8.570;2023-09-30T00:42:52;17.50;66.90
3312;DHT22;1668;49.648;8.570;2023-09-30T00:45:19;17.50;99.90
3312;DHT22;1668;49.648;8.570;2023-09-30T00:47:47;17.50;94.30
3312;DHT22;1668;49.648;8.570;2023-09-30T00:50:15;17.50;99.90
3312;DHT22;1668;49.648;8.570;2023-09-30T00:52:43;17.50;99.90
3312;DHT22;1668;49.648;8.570;2023-09-30T00:55:12;17.50;1.00
3312;DHT22;1668;49.648;8.570;2023-09-30T00:57:39;17.50;99.90
3312;DHT22;1668;49.648;8.570;2023-09-30T01:00:07;17.50;99.90
3312;DHT22;1668;49.648;8.570;2023-09-30T01:02:38;17.50;99.90
3312;DHT22;1668;49.648;8.570;2023-09-30T01:05:06;17.40;1.00
3312;DHT22;1668;49.648;8.570;2023-09-30T01:07:34;17.40;1.00
3312;DHT22;1668;49.648;8.570;2023-09-30T01:10:01;17.40;1.00
3312;DHT22;1668;49.648;8.570;2023-09-30T01:12:28;17.40;1.00
3312;DHT22;1668;49.648;8.570;2023-09-30T01:14:57;17.40;1.00
3312;DHT22;1668;49.648;8.570;2023-09-30T01:17:24;17.40;1.00
3312;DHT22;1668;49.648;8.570;2023-09-30T01:19:51;17.40;1.00
3312;DHT22;1668;49.648;8.570;2023-09-30T01:22:20;17.40;1.00
3312;DHT22;1668;49.648;8.570;2023-09-30T01:24:46;17.40;1.00
3312;DHT22;1668;49.648;8.570;2023-09-30T01:27:13;17.40;24.10
3312;DHT22;1668;49.648;8.570;2023-09-30T01:29:43;17.30;1.00
3312;DHT22;1668;49.648;8.570;2023-09-30T01:32:10;17.30;1.00
3312;DHT22;1668;49.648;8.570;2023-09-30T01:34:39;17.30;1.00
3312;DHT22;1668;49.648;8.570;2023-09-30T01:37:06;17.30;1.00
3312;DHT22;1668;49.648;8.570;2023-09-30T01:39:34;17.30;1.00
3312;DHT22;1668;49.648;8.570;2023-09-30T01:42:01;17.30;70.50
3312;DHT22;1668;49.648;8.570;2023-09-30T01:44:28;17.30;17.10
3312;DHT22;1668;49.648;8.570;2023-09-30T01:46:55;17.30;80.40
3312;DHT22;1668;49.648;8.570;2023-09-30T01:49:22;17.20;99.90
3312;DHT22;1668;49.648;8.570;2023-09-30T01:51:51;17.20;99.90
3312;DHT22;1668;49.648;8.570;2023-09-30T01:54:18;17.30;99.90
3312;DHT22;1668;49.648;8.570;2023-09-30T01:56:46;17.20;99.90
3312;DHT22;1668;49.648;8.570;2023-09-30T01:59:15;17.20;99.90
3312;DHT22;1668;49.648;8.570;2023-09-30T02:01:42;17.20;99.90
3312;DHT22;1668;49.648;8.570;2023-09-30T02:04:09;17.20;99.90
3312;DHT22;1668;49.648;8.570;2023-09-30T02:06:36;17.20;99.90
3312;DHT22;1668;49.648;8.570;2023-09-30T02:09:03;17.20;99.90
3312;DHT22;1668;49.648;8.570;2023-09-30T02:11:33;17.20;99.90
3312;DHT22;1668;49.648;8.570;2023-09-30T02:14:03;17.20;99.90
3312;DHT22;1668;49.648;8.570;2023-09-30T02:16:31;17.20;99.90
3312;DHT22;1668;49.648;8.570;2023-09-30T02:18:58;17.20;99.90
3312;DHT22;1668;49.648;8.570;2023-09-30T02:21:25;17.20;99.90
3312;DHT22;1668;49.648;8.570;2023-09-30T02:23:53;17.10;99.90
3312;DHT22;1668;49.648;8.570;2023-09-30T02:26:21;17.10;99.90
3312;DHT22;1668;49.648;8.570;2023-09-30T02:28:51;17.10;99.90
3312;DHT22;1668;49.648;8.570;2023-09-30T02:31:19;17.10;99.90
3312;DHT22;1668;49.648;8.570;2023-09-30T02:33:46;17.10;99.90
3312;DHT22;1668;49.648;8.570;2023-09-30T02:36:12;17.10;99.90
3312;DHT22;1668;49.648;8.570;2023-09-30T02:38:39;17.10;99.90
3312;DHT22;1668;49.648;8.570;2023-09-30T02:41:07;17.10;99.90
3312;DHT22;1668;49.648;8.570;2023-09-30T02:43:33;17.20;1.00
3312;DHT22;1668;49.648;8.570;2023-09-30T02:46:00;17.10;99.90
3312;DHT22;1668;49.648;8.570;2023-09-30T02:48:29;17.10;99.90
3312;DHT22;1668;49.648;8.570;2023-09-30T02:50:56;17.10;99.90
3312;DHT22;1668;49.648;8.570;2023-09-30T02:53:23;17.10;99.90
3312;DHT22;1668;49.648;8.570;2023-09-30T02:55:50;17.10;99.90
3312;DHT22;1668;49.648;8.570;2023-09-30T02:58:22;17.10;1.00
3312;DHT22;1668;49.648;8.570;2023-09-30T03:00:49;17.10;1.00
3312;DHT22;1668;49.648;8.570;2023-09-30T03:03:16;17.10;1.00
3312;DHT22;1668;49.648;8.570;2023-09-30T03:05:44;17.00;1.00
3312;DHT22;1668;49.648;8.570;2023-09-30T03:08:12;17.00;1.00
3312;DHT22;1668;49.648;8.570;2023-09-30T03:10:39;17.00;1.00
3312;DHT22;1668;49.648;8.570;2023-09-30T03:13:07;17.00;1.00
3312;DHT22;1668;49.648;8.570;2023-09-30T03:15:34;16.90;1.00
3312;DHT22;1668;49.648;8.570;2023-09-30T03:18:01;16.90;99.90
3312;DHT22;1668;49.648;8.570;2023-09-30T03:20:29;16.90;99.90
3312;DHT22;1668;49.648;8.570;2023-09-30T03:22:58;16.90;99.90
3312;DHT22;1668;49.648;8.570;2023-09-30T03:25:25;16.80;99.90
3312;DHT22;1668;49.648;8.570;2023-09-30T03:27:52;16.80;99.90
3312;DHT22;1668;49.648;8.570;2023-09-30T03:30:19;16.80;99.90
3312;DHT22;1668;49.648;8.570;2023-09-30T03:32:46;16.80;99.90
3312;DHT22;1668;49.648;8.570;2023-09-30T03:35:13;16.80;99.90
3312;DHT22;1668;49.648;8.570;2023-09-30T03:37:42;16.80;99.90
3312;DHT22;1668;49.648;8.570;2023-09-30T03:40:12;16.70;76.80
3312;DHT22;1668;49.648;8.570;2023-09-30T03:42:40;16.70;63.60
3312;DHT22;1668;49.648;8.570;2023-09-30T03:45:08;16.70;95.20
3312;DHT22;1668;49.648;8.570;2023-09-30T03:47:35;16.60;99.90
3312;DHT22;1668;49.648;8.570;2023-09-30T03:50:04;16.60;99.90
3312;DHT22;1668;49.648;8.570;2023-09-30T03:52:33;16.50;99.90
3312;DHT22;1668;49.648;8.570;2023-09-30T03:55:00;16.50;99.90
3312;DHT22;1668;49.648;8.570;2023-09-30T03:57:31;16.50;99.90
3312;DHT22;1668;49.648;8.570;2023-09-30T03:59:59;16.50;99.90
3312;DHT22;1668;49.648;8.570;2023-09-30T04:02:26;16.50;99.90
3312;DHT22;1668;49.648;8.570;2023-09-30T04:04:53;16.50;99.90
3312;DHT22;1668;49.648;8.570;2023-09-30T04:07:21;16.50;99.90
3312;DHT22;1668;49.648;8.570;2023-09-30T04:09:48;16.40;99.90
3312;DHT22;1668;49.648;8.570;2023-09-30T04:12:15;16.40;1.00
3312;DHT22;1668;49.648;8.570;2023-09-30T04:14:43;16.30;99.90
3312;DHT22;1668;49.648;8.570;2023-09-30T04:17:10;16.30;99.90
3312;DHT22;1668;49.648;8.570;2023-09-30T04:19:37;16.30;1.00
3312;DHT22;1668;49.648;8.570;2023-09-30T04:22:04;16.20;1.00
3312;DHT22;1668;49.648;8.570;2023-09-30T04:24:31;16.20;1.00
3312;DHT22;1668;49.648;8.570;2023-09-30T04:26:58;16.20;1.00
3312;DHT22;1668;49.648;8.570;2023-09-30T04:29:28;16.20;1.00
3312;DHT22;1668;49.648;8.570;2023-09-30T04:31:57;16.10;1.00
3312;DHT22;1668;49.648;8.570;2023-09-30T04:34:24;16.10;1.00
3312;DHT22;1668;49.648;8.570;2023-09-30T04:36:53;16.10;1.00
3312;DHT22;1668;49.648;8.570;2023-09-30T04:39:19;16.00;1.00
3312;DHT22;1668;49.648;8.570;2023-09-30T04:41:46;16.10;1.00
3312;DHT22;1668;49.648;8.570;2023-09-30T04:44:14;16.10;1.00
3312;DHT22;1668;49.648;8.570;2023-09-30T04:46:40;16.10;1.00
3312;DHT22;1668;49.648;8.570;2023-09-30T04:49:14;16.10;1.00
3312;DHT22;1668;49.648;8.570;2023-09-30T04:51:41;16.00;1.00
3312;DHT22;1668;49.648;8.570;2023-09-30T04:54:08;16.00;1.00
3312;DHT22;1668;49.648;8.570;2023-09-30T04:56:36;16.00;1.00
3312;DHT22;1668;49.648;8.570;2023-09-30T04:59:04;16.00;1.00
3312;DHT22;1668;49.648;8.570;2023-09-30T05:01:31;16.00;1.00
3312;DHT22;1668;49.648;8.570;2023-09-30T05:03:58;15.90;1.00
3312;DHT22;1668;49.648;8.570;2023-09-30T05:06:26;16.00;1.00
3312;DHT22;1668;49.648;8.570;2023-09-30T05:08:53;16.00;1.00
3312;DHT22;1668;49.648;8.570;2023-09-30T05:11:20;16.00;1.00
3312;DHT22;1668;49.648;8.570;2023-09-30T05:13:47;15.90;1.00
3312;DHT22;1668;49.648;8.570;2023-09-30T05:16:14;15.90;1.00
3312;DHT22;1668;49.648;8.570;2023-09-30T05:18:42;15.90;1.00
3312;DHT22;1668;49.648;8.570;2023-09-30T05:21:08;15.90;1.00
3312;DHT22;1668;49.648;8.570;2023-09-30T05:23:37;15.90;1.00
3312;DHT22;1668;49.648;8.570;2023-09-30T05:26:04;15.90;1.00
3312;DHT22;1668;49.648;8.570;2023-09-30T05:28:32;15.80;1.00
3312;DHT22;1668;49.648;8.570;2023-09-30T05:30:58;15.80;1.00
3312;DHT22;1668;49.648;8.570;2023-09-30T05:33:26;15.80;1.00
3312;DHT22;1668;49.648;8.570;2023-09-30T05:35:53;15.80;1.00
3312;DHT22;1668;49.648;8.570;2023-09-30T05:38:21;15.80;1.00
3312;DHT22;1668;49.648;8.570;2023-09-30T05:40:50;15.80;1.00
3312;DHT22;1668;49.648;8.570;2023-09-30T05:43:17;15.90;1.00
3312;DHT22;1668;49.648;8.570;2023-09-30T05:45:45;15.90;1.00
3312;DHT22;1668;49.648;8.570;2023-09-30T05:48:15;15.80;1.00
3312;DHT22;1668;49.648;8.570;2023-09-30T05:50:42;15.90;1.00
3312;DHT22;1668;49.648;8.570;2023-09-30T05:53:09;15.80;1.00
3312;DHT22;1668;49.648;8.570;2023-09-30T05:55:40;15.80;99.90
3312;DHT22;1668;49.648;8.570;2023-09-30T05:58:12;15.80;1.00
3312;DHT22;1668;49.648;8.570;2023-09-30T06:00:39;15.80;1.00
3312;DHT22;1668;49.648;8.570;2023-09-30T06:03:07;15.80;99.90
3312;DHT22;1668;49.648;8.570;2023-09-30T06:05:39;15.80;1.00
3312;DHT22;1668;49.648;8.570;2023-09-30T06:08:08;15.80;99.90
3312;DHT22;1668;49.648;8.570;2023-09-30T06:10:36;15.80;99.90
3312;DHT22;1668;49.648;8.570;2023-09-30T06:13:04;15.80;99.90
3312;DHT22;1668;49.648;8.570;2023-09-30T06:15:32;15.80;99.90
3312;DHT22;1668;49.648;8.570;2023-09-30T06:17:59;15.80;99.90
3312;DHT22;1668;49.648;8.570;2023-09-30T06:20:26;15.80;99.90
3312;DHT22;1668;49.648;8.570;2023-09-30T06:22:56;15.80;99.90
3312;DHT22;1668;49.648;8.570;2023-09-30T06:25:23;15.80;99.90
3312;DHT22;1668;49.648;8.570;2023-09-30T06:27:50;15.80;99.90
3312;DHT22;1668;49.648;8.570;2023-09-30T06:30:18;15.80;99.90
3312;DHT22;1668;49.648;8.570;2023-09-30T06:32:47;15.80;99.90
3312;DHT22;1668;49.648;8.570;2023-09-30T06:35:14;15.80;99.90
3312;DHT22;1668;49.648;8.570;2023-09-30T06:37:42;15.80;99.90
3312;DHT22;1668;49.648;8.570;2023-09-30T06:40:11;15.80;99.90
3312;DHT22;1668;49.648;8.570;2023-09-30T06:42:38;15.90;99.90
3312;DHT22;1668;49.648;8.570;2023-09-30T06:45:07;15.90;99.90
3312;DHT22;1668;49.648;8.570;2023-09-30T06:47:36;15.90;15.80
3312;DHT22;1668;49.648;8.570;2023-09-30T06:50:08;15.90;1.00
3312;DHT22;1668;49.648;8.570;2023-09-30T06:52:35;15.90;3.90
3312;DHT22;1668;49.648;8.570;2023-09-30T06:55:03;16.00;1.00
3312;DHT22;1668;49.648;8.570;2023-09-30T06:57:32;16.00;1.00
3312;DHT22;1668;49.648;8.570;2023-09-30T06:59:59;16.00;1.00
3312;DHT22;1668;49.648;8.570;2023-09-30T07:02:25;16.00;1.00
3312;DHT22;1668;49.648;8.570;2023-09-30T07:04:53;16.00;1.00
3312;DHT22;1668;49.648;8.570;2023-09-30T07:07:21;16.00;1.00
3312;DHT22;1668;49.648;8.570;2023-09-30T07:09:48;16.00;1.00
3312;DHT22;1668;49.648;8.570;2023-09-30T07:12:15;16.00;1.00
3312;DHT22;1668;49.648;8.570;2023-09-30T07:14:42;16.00;1.00
3312;DHT22;1668;49.648;8.570;2023-09-30T07:17:09;16.00;1.00
3312;DHT22;1668;49.648;8.570;2023-09-30T07:19:36;16.00;1.00
3312;DHT22;1668;49.648;8.570;2023-09-30T07:22:03;16.10;99.90
3312;DHT22;1668;49.648;8.570;2023-09-30T07:24:31;16.10;99.90
3312;DHT22;1668;49.648;8.570;2023-09-30T07:26:59;16.20;1.00
3312;DHT22;1668;49.648;8.570;2023-09-30T07:29:26;16.30;1.00
3312;DHT22;1668;49.648;8.570;2023-09-30T07:31:52;16.30;99.90
3312;DHT22;1668;49.648;8.570;2023-09-30T07:34:20;16.30;1.00
3312;DHT22;1668;49.648;8.570;2023-09-30T07:36:46;16.30;1.00
3312;DHT22;1668;49.648;8.570;2023-09-30T07:39:13;16.40;1.00
3312;DHT22;1668;49.648;8.570;2023-09-30T07:41:42;16.40;1.00
3312;DHT22;1668;49.648;8.570;2023-09-30T07:44:08;16.40;1.00
3312;DHT22;1668;49.648;8.570;2023-09-30T07:46:36;16.40;99.90
3312;DHT22;1668;49.648;8.570;2023-09-30T07:49:03;16.40;99.90
3312;DHT22;1668;49.648;8.570;2023-09-30T07:51:30;16.40;1.00
3312;DHT22;1668;49.648;8.570;2023-09-30T07:53:57;16.50;1.00
3312;DHT22;1668;49.648;8.570;2023-09-30T07:56:23;16.50;99.90
3312;DHT22;1668;49.648;8.570;2023-09-30T07:58:51;16.60;99.90
3312;DHT22;1668;49.648;8.570;2023-09-30T08:01:18;16.60;99.90
3312;DHT22;1668;49.648;8.570;2023-09-30T08:03:45;16.60;1.00
3312;DHT22;1668;49.648;8.570;2023-09-30T08:06:12;16.70;1.00
3312;DHT22;1668;49.648;8.570;2023-09-30T08:08:39;16.70;99.90
3312;DHT22;1668;49.648;8.570;2023-09-30T08:11:06;16.70;1.00
3312;DHT22;1668;49.648;8.570;2023-09-30T08:13:33;16.70;1.00
3312;DHT22;1668;49.648;8.570;2023-09-30T08:16:01;16.80;99.90
3312;DHT22;1668;49.648;8.570;2023-09-30T08:18:28;16.80;99.90
3312;DHT22;1668;49.648;8.570;2023-09-30T08:20:55;16.80;99.90
3312;DHT22;1668;49.648;8.570;2023-09-30T08:23:22;16.90;99.90
3312;DHT22;1668;49.648;8.570;2023-09-30T08:25:49;16.90;1.00
3312;DHT22;1668;49.648;8.570;2023-09-30T08:28:15;16.90;1.00
3312;DHT22;1668;49.648;8.570;2023-09-30T08:30:42;16.90;1.00
3312;DHT22;1668;49.648;8.570;2023-09-30T08:33:11;17.00;1.00
3312;DHT22;1668;49.648;8.570;2023-09-30T08:35:38;17.00;99.90
3312;DHT22;1668;49.648;8.570;2023-09-30T08:38:05;17.00;1.00
3312;DHT22;1668;49.648;8.570;2023-09-30T08:40:32;17.00;1.00
3312;DHT22;1668;49.648;8.570;2023-09-30T08:42:58;17.10;1.00
3312;DHT22;1668;49.648;8.570;2023-09-30T08:45:28;17.10;99.90
3312;DHT22;1668;49.648;8.570;2023-09-30T08:47:55;17.10;1.00
3312;DHT22;1668;49.648;8.570;2023-09-30T08:50:23;17.10;99.90
3312;DHT22;1668;49.648;8.570;2023-09-30T08:52:51;17.10;1.00
3312;DHT22;1668;49.648;8.570;2023-09-30T08:55:18;17.10;1.00
3312;DHT22;1668;49.648;8.570;2023-09-30T08:57:46;17.10;1.00
3312;DHT22;1668;49.648;8.570;2023-09-30T09:00:14;17.10;99.90
3312;DHT22;1668;49.648;8.570;2023-09-30T09:02:42;17.10;99.90
3312;DHT22;1668;49.648;8.570;2023-09-30T09:05:09;17.20;99.90
3312;DHT22;1668;49.648;8.570;2023-09-30T09:07:38;17.20;99.90
3312;DHT22;1668;49.648;8.570;2023-09-30T09:10:06;17.20;99.90
3312;DHT22;1668;49.648;8.570;2023-09-30T09:12:34;17.30;70.80
3312;DHT22;1668;49.648;8.570;2023-09-30T09:15:02;17.30;1.00
3312;DHT22;1668;49.648;8.570;2023-09-30T09:17:42;17.40;1.00
3312;DHT22;1668;49.648;8.570;2023-09-30T09:20:10;17.40;1.00
3312;DHT22;1668;49.648;8.570;2023-09-30T09:22:41;17.50;99.90
3312;DHT22;1668;49.648;8.570;2023-09-30T09:25:09;17.50;99.90
3312;DHT22;1668;49.648;8.570;2023-09-30T09:27:37;17.50;1.00
3312;DHT22;1668;49.648;8.570;2023-09-30T09:30:17;17.50;22.90
3312;DHT22;1668;49.648;8.570;2023-09-30T09:33:08;17.50;1.00
3312;DHT22;1668;49.648;8.570;2023-09-30T09:35:35;17.60;1.00
3312;DHT22;1668;49.648;8.570;2023-09-30T09:38:04;17.70;1.00
3312;DHT22;1668;49.648;8.570;2023-09-30T09:40:32;17.80;1.00
3312;DHT22;1668;49.648;8.570;2023-09-30T09:43:00;17.80;1.00
3312;DHT22;1668;49.648;8.570;2023-09-30T09:45:32;17.80;1.00
3312;DHT22;1668;49.648;8.570;2023-09-30T09:47:59;17.80;99.90
3312;DHT22;1668;49.648;8.570;2023-09-30T09:50:26;17.90;1.00
3312;DHT22;1668;49.648;8.570;2023-09-30T09:52:54;18.00;99.90
3312;DHT22;1668;49.648;8.570;2023-09-30T09:55:23;18.00;99.90
3312;DHT22;1668;49.648;8.570;2023-09-30T09:57:51;18.00;99.90
3312;DHT22;1668;49.648;8.570;2023-09-30T10:00:19;18.10;99.90
3312;DHT22;1668;49.648;8.570;2023-09-30T10:02:46;18.20;99.90
3312;DHT22;1668;49.648;8.570;2023-09-30T10:05:14;18.20;99.90
3312;DHT22;1668;49.648;8.570;2023-09-30T10:07:44;18.40;99.90
3312;DHT22;1668;49.648;8.570;2023-09-30T10:10:15;18.50;99.90
3312;DHT22;1668;49.648;8.570;2023-09-30T10:12:45;18.50;99.90
3312;DHT22;1668;49.648;8.570;2023-09-30T10:15:39;18.60;99.90
3312;DHT22;1668;49.648;8.570;2023-09-30T10:18:09;18.60;99.90
3312;DHT22;1668;49.648;8.570;2023-09-30T10:20:38;18.70;99.90
3312;DHT22;1668;49.648;8.570;2023-09-30T10:23:23;18.70;99.90
3312;DHT22;1668;49.648;8.570;2023-09-30T10:26:13;18.70;99.90
3312;DHT22;1668;49.648;8.570;2023-09-30T10:28:45;18.70;99.90
3312;DHT22;1668;49.648;8.570;2023-09-30T10:31:16;18.90;50.40
3312;DHT22;1668;49.648;8.570;2023-09-30T10:34:17;18.90;1.00
3312;DHT22;1668;49.648;8.570;2023-09-30T10:36:45;19.00;1.00
3312;DHT22;1668;49.648;8.570;2023-09-30T10:39:13;19.00;1.00
3312;DHT22;1668;49.648;8.570;2023-09-30T10:41:49;19.20;1.00
3312;DHT22;1668;49.648;8.570;2023-09-30T10:44:36;19.30;99.30
3312;DHT22;1668;49.648;8.570;2023-09-30T10:47:34;19.40;1.00
3312;DHT22;1668;49.648;8.570;2023-09-30T10:50:01;19.40;1.00
3312;DHT22;1668;49.648;8.570;2023-09-30T10:52:30;19.40;1.00
3312;DHT22;1668;49.648;8.570;2023-09-30T10:55:03;19.50;99.90
3312;DHT22;1668;49.648;8.570;2023-09-30T10:57:30;19.60;1.00
3312;DHT22;1668;49.648;8.570;2023-09-30T11:00:09;19.60;1.00
3312;DHT22;1668;49.648;8.570;2023-09-30T11:02:48;19.70;1.00
3312;DHT22;1668;49.648;8.570;2023-09-30T11:05:17;19.80;99.90
3312;DHT22;1668;49.648;8.570;2023-09-30T11:07:45;19.80;99.90
3312;DHT22;1668;49.648;8.570;2023-09-30T11:10:16;20.00;21.80
3312;DHT22;1668;49.648;8.570;2023-09-30T11:12:54;20.10;1.00
3312;DHT22;1668;49.648;8.570;2023-09-30T11:15:22;20.10;1.00
3312;DHT22;1668;49.648;8.570;2023-09-30T11:17:49;20.10;66.40
3312;DHT22;1668;49.648;8.570;2023-09-30T11:20:17;20.00;67.00
3312;DHT22;1668;49.648;8.570;2023-09-30T11:22:44;20.10;66.10
3312;DHT22;1668;49.648;8.570;2023-09-30T11:25:16;20.20;64.70
3312;DHT22;1668;49.648;8.570;2023-09-30T11:27:43;20.30;64.30
3312;DHT22;1668;49.648;8.570;2023-09-30T11:30:11;20.20;64.10
3312;DHT22;1668;49.648;8.570;2023-09-30T11:32:39;20.20;66.10
3312;DHT22;1668;49.648;8.570;2023-09-30T11:35:22;20.30;63.20
3312;DHT22;1668;49.648;8.570;2023-09-30T11:37:49;20.30;63.40
3312;DHT22;1668;49.648;8.570;2023-09-30T11:40:18;20.50;62.00
3312;DHT22;1668;49.648;8.570;2023-09-30T11:43:10;20.60;63.00
3312;DHT22;1668;49.648;8.570;2023-09-30T11:45:37;20.70;61.40
3312;DHT22;1668;49.648;8.570;2023-09-30T11:48:17;20.80;61.30
3312;DHT22;1668;49.648;8.570;2023-09-30T11:50:46;20.80;60.50
3312;DHT22;1668;49.648;8.570;2023-09-30T11:53:16;20.90;59.90
3312;DHT22;1668;49.648;8.570;2023-09-30T11:55:43;21.00;59.00
3312;DHT22;1668;49.648;8.570;2023-09-30T11:58:11;21.00;58.60
3312;DHT22;1668;49.648;8.570;2023-09-30T12:00:44;21.00;58.40
3312;DHT22;1668;49.648;8.570;2023-09-30T12:03:11;21.20;58.20
3312;DHT22;1668;49.648;8.570;2023-09-30T12:05:39;21.30;57.60
3312;DHT22;1668;49.648;8.570;2023-09-30T12:08:06;21.20;57.00
3312;DHT22;1668;49.648;8.570;2023-09-30T12:10:33;21.40;56.60
3312;DHT22;1668;49.648;8.570;2023-09-30T12:13:00;21.40;55.20
3312;DHT22;1668;49.648;8.570;2023-09-30T12:15:27;21.30;54.70
3312;DHT22;1668;49.648;8.570;2023-09-30T12:17:54;21.30;55.20
3312;DHT22;1668;49.648;8.570;2023-09-30T12:20:20;21.40;55.20
3312;DHT22;1668;49.648;8.570;2023-09-30T12:22:50;21.30;54.30
3312;DHT22;1668;49.648;8.570;2023-09-30T12:25:17;21.30;55.90
3312;DHT22;1668;49.648;8.570;2023-09-30T12:27:47;21.20;54.90
3312;DHT22;1668;49.648;8.570;2023-09-30T12:30:14;21.30;52.80
3312;DHT22;1668;49.648;8.570;2023-09-30T12:32:41;21.30;53.40
3312;DHT22;1668;49.648;8.570;2023-09-30T12:35:08;21.40;54.10
3312;DHT22;1668;49.648;8.570;2023-09-30T12:37:35;21.30;54.50
3312;DHT22;1668;49.648;8.570;2023-09-30T12:40:06;21.30;53.90
3312;DHT22;1668;49.648;8.570;2023-09-30T12:42:33;21.30;54.40
3312;DHT22;1668;49.648;8.570;2023-09-30T12:45:01;21.30;54.30
3312;DHT22;1668;49.648;8.570;2023-09-30T12:47:28;21.40;55.40
3312;DHT22;1668;49.648;8.570;2023-09-30T12:49:55;21.40;56.20
3312;DHT22;1668;49.648;8.570;2023-09-30T12:52:23;21.50;54.70
3312;DHT22;1668;49.648;8.570;2023-09-30T12:54:51;21.50;54.50
3312;DHT22;1668;49.648;8.570;2023-09-30T12:57:19;21.40;53.40
3312;DHT22;1668;49.648;8.570;2023-09-30T12:59:46;21.40;54.90
3312;DHT22;1668;49.648;8.570;2023-09-30T13:02:14;21.50;53.40
3312;DHT22;1668;49.648;8.570;2023-09-30T13:04:43;21.40;54.70
3312;DHT22;1668;49.648;8.570;2023-09-30T13:07:11;21.40;54.60
3312;DHT22;1668;49.648;8.570;2023-09-30T13:09:38;21.40;54.00
3312;DHT22;1668;49.648;8.570;2023-09-30T13:12:05;21.30;54.70
3312;DHT22;1668;49.648;8.570;2023-09-30T13:14:34;21.30;54.50
3312;DHT22;1668;49.648;8.570;2023-09-30T13:17:00;21.30;54.60
3312;DHT22;1668;49.648;8.570;2023-09-30T13:19:29;21.30;53.60
3312;DHT22;1668;49.648;8.570;2023-09-30T13:21:58;21.30;54.70
3312;DHT22;1668;49.648;8.570;2023-09-30T13:24:25;21.30;53.80
3312;DHT22;1668;49.648;8.570;2023-09-30T13:26:52;21.30;53.80
3312;DHT22;1668;49.648;8.570;2023-09-30T13:29:19;21.40;54.30
3312;DHT22;1668;49.648;8.570;2023-09-30T13:31:47;21.30;53.30
3312;DHT22;1668;49.648;8.570;2023-09-30T13:34:14;21.40;52.60
3312;DHT22;1668;49.648;8.570;2023-09-30T13:36:41;21.40;54.50
3312;DHT22;1668;49.648;8.570;2023-09-30T13:39:08;21.50;54.60
3312;DHT22;1668;49.648;8.570;2023-09-30T13:41:38;21.50;53.30
3312;DHT22;1668;49.648;8.570;2023-09-30T13:44:05;21.50;53.20
3312;DHT22;1668;49.648;8.570;2023-09-30T13:46:33;21.60;53.80
3312;DHT22;1668;49.648;8.570;2023-09-30T13:49:01;21.60;52.80
3312;DHT22;1668;49.648;8.570;2023-09-30T13:51:29;21.70;52.00
3312;DHT22;1668;49.648;8.570;2023-09-30T13:53:56;21.70;52.90
3312;DHT22;1668;49.648;8.570;2023-09-30T13:56:23;21.70;51.20
3312;DHT22;1668;49.648;8.570;2023-09-30T13:58:49;21.60;51.80
3312;DHT22;1668;49.648;8.570;2023-09-30T14:01:17;21.60;51.40
3312;DHT22;1668;49.648;8.570;2023-09-30T14:03:45;21.70;51.40
3312;DHT22;1668;49.648;8.570;2023-09-30T14:06:14;21.70;50.80
3312;DHT22;1668;49.648;8.570;2023-09-30T14:08:41;21.80;51.80
3312;DHT22;1668;49.648;8.570;2023-09-30T14:11:09;22.10;52.10
3312;DHT22;1668;49.648;8.570;2023-09-30T14:13:37;22.30;51.50
3312;DHT22;1668;49.648;8.570;2023-09-30T14:16:05;22.40;50.00
3312;DHT22;1668;49.648;8.570;2023-09-30T14:18:32;22.50;51.80
3312;DHT22;1668;49.648;8.570;2023-09-30T14:20:59;22.60;49.80
3312;DHT22;1668;49.648;8.570;2023-09-30T14:23:28;22.50;51.20
3312;DHT22;1668;49.648;8.570;2023-09-30T14:25:55;22.60;49.00
3312;DHT22;1668;49.648;8.570;2023-09-30T14:28:22;22.80;48.60
3312;DHT22;1668;49.648;8.570;2023-09-30T14:30:49;22.90;47.70
3312;DHT22;1668;49.648;8.570;2023-09-30T14:33:16;22.80;46.60
3312;DHT22;1668;49.648;8.570;2023-09-30T14:35:45;22.80;46.60
3312;DHT22;1668;49.648;8.570;2023-09-30T14:38:12;22.90;48.70
3312;DHT22;1668;49.648;8.570;2023-09-30T14:40:40;23.10;46.20
3312;DHT22;1668;49.648;8.570;2023-09-30T14:43:08;23.10;47.50
3312;DHT22;1668;49.648;8.570;2023-09-30T14:45:37;23.00;46.50
3312;DHT22;1668;49.648;8.570;2023-09-30T14:48:05;23.10;45.70
3312;DHT22;1668;49.648;8.570;2023-09-30T14:50:32;22.90;45.30
3312;DHT22;1668;49.648;8.570;2023-09-30T14:52:59;22.70;46.80
3312;DHT22;1668;49.648;8.570;2023-09-30T14:55:26;22.80;48.50
3312;DHT22;1668;49.648;8.570;2023-09-30T14:57:54;22.80;46.70
3312;DHT22;1668;49.648;8.570;2023-09-30T15:00:21;22.70;47.50
3312;DHT22;1668;49.648;8.570;2023-09-30T15:02:50;22.30;49.00
3312;DHT22;1668;49.648;8.570;2023-09-30T15:05:17;22.40;48.00
3312;DHT22;1668;49.648;8.570;2023-09-30T15:07:44;22.50;48.90
3312;DHT22;1668;49.648;8.570;2023-09-30T15:10:11;22.40;47.20
3312;DHT22;1668;49.648;8.570;2023-09-30T15:12:38;22.30;47.50
3312;DHT22;1668;49.648;8.570;2023-09-30T15:15:07;22.10;47.60
3312;DHT22;1668;49.648;8.570;2023-09-30T15:17:34;22.10;48.50
3312;DHT22;1668;49.648;8.570;2023-09-30T15:20:01;22.10;50.90
3312;DHT22;1668;49.648;8.570;2023-09-30T15:22:28;22.00;48.90
3312;DHT22;1668;49.648;8.570;2023-09-30T15:24:55;22.00;48.80
3312;DHT22;1668;49.648;8.570;2023-09-30T15:27:22;21.90;49.20
3312;DHT22;1668;49.648;8.570;2023-09-30T15:29:50;21.80;48.00
3312;DHT22;1668;49.648;8.570;2023-09-30T15:32:19;21.70;48.10
3312;DHT22;1668;49.648;8.570;2023-09-30T15:34:47;21.60;50.20
3312;DHT22;1668;49.648;8.570;2023-09-30T15:37:13;21.60;49.50
3312;DHT22;1668;49.648;8.570;2023-09-30T15:39:41;21.60;49.80
3312;DHT22;1668;49.648;8.570;2023-09-30T15:42:09;21.60;50.80
3312;DHT22;1668;49.648;8.570;2023-09-30T15:44:37;21.50;49.70
3312;DHT22;1668;49.648;8.570;2023-09-30T15:47:05;21.40;50.70
3312;DHT22;1668;49.648;8.570;2023-09-30T15:49:34;21.40;50.20
3312;DHT22;1668;49.648;8.570;2023-09-30T15:52:01;21.30;50.40
3312;DHT22;1668;49.648;8.570;2023-09-30T15:54:28;21.30;50.80
3312;DHT22;1668;49.648;8.570;2023-09-30T15:56:55;21.20;50.40
3312;DHT22;1668;49.648;8.570;2023-09-30T15:59:24;21.20;51.20
3312;DHT22;1668;49.648;8.570;2023-09-30T16:01:50;21.20;50.30
3312;DHT22;1668;49.648;8.570;2023-09-30T16:04:17;21.10;50.90
3312;DHT22;1668;49.648;8.570;2023-09-30T16:06:45;21.00;52.00
3312;DHT22;1668;49.648;8.570;2023-09-30T16:09:12;21.00;51.40
3312;DHT22;1668;49.648;8.570;2023-09-30T16:11:39;21.00;52.20
3312;DHT22;1668;49.648;8.570;2023-09-30T16:14:07;21.00;52.80